createdAt,value
2016-05-16T00:00:10.740Z,51.08
2016-05-16T00:01:13.681Z,50.99
2016-05-16T00:02:10.652Z,51.1
2016-05-16T00:03:10.623Z,50.54
2016-05-16T00:04:10.532Z,51.01
2016-05-16T00:05:16.472Z,50.82
2016-05-16T00:06:13.288Z,50.82
2016-05-16T00:07:13.384Z,50.63
2016-05-16T00:08:13.340Z,50.7
2016-05-16T00:09:10.467Z,50.73
2016-05-16T00:10:10.423Z,51.2
2016-05-16T00:11:10.175Z,50.99
2016-05-16T00:12:13.132Z,51.1
2016-05-16T00:13:10.073Z,51.3
2016-05-16T00:14:10.028Z,51.1
2016-05-16T00:15:12.828Z,51.1
2016-05-16T00:16:10.221Z,51.3
2016-05-16T00:17:12.864Z,51.49
2016-05-16T00:18:09.804Z,51.18
2016-05-16T00:19:12.760Z,51.2
2016-05-16T00:20:10.310Z,51.49
2016-05-16T00:21:12.657Z,50.73
2016-05-16T00:22:12.596Z,51.01
2016-05-16T00:23:09.724Z,51.1
2016-05-16T00:24:09.493Z,51.68
2016-05-16T00:25:12.433Z,51.49
2016-05-16T00:26:09.404Z,51.58
2016-05-16T00:27:15.360Z,51.46
2016-05-16T00:28:09.488Z,51.68
2016-05-16T00:29:09.240Z,51.58
2016-05-16T00:30:09.181Z,51.49
2016-05-16T00:31:09.136Z,51.49
2016-05-16T00:32:12.108Z,51.46
2016-05-16T00:33:09.329Z,51.78
2016-05-16T00:34:11.973Z,51.78
2016-05-16T00:35:11.959Z,51.27
2016-05-16T00:36:08.884Z,51.46
2016-05-16T00:37:08.840Z,51.84
2016-05-16T00:38:11.811Z,51.58
2016-05-16T00:39:08.720Z,51.78
2016-05-16T00:40:08.754Z,51.78
2016-05-16T00:41:11.617Z,51.58
2016-05-16T00:42:11.588Z,51.49
2016-05-16T00:43:08.497Z,51.84
2016-05-16T00:44:08.452Z,51.87
2016-05-16T00:45:08.424Z,51.87
2016-05-16T00:46:08.349Z,52.13
2016-05-16T00:47:08.305Z,51.84
2016-05-16T00:48:08.510Z,52.51
2016-05-16T00:49:08.200Z,52.32
2016-05-16T00:50:08.141Z,52.8
2016-05-16T00:51:08.080Z,52.51
2016-05-16T00:52:07.880Z,52.51
2016-05-16T00:53:08.008Z,52.51
2016-05-16T00:54:10.933Z,52.89
2016-05-16T00:55:13.904Z,52.7
2016-05-16T00:56:10.829Z,52.92
2016-05-16T00:57:07.800Z,52.41
2016-05-16T00:58:07.569Z,52.61
2016-05-16T00:59:10.867Z,52.61
2016-05-16T01:00:07.620Z,53.08
2016-05-16T01:01:07.576Z,53.17
2016-05-16T01:02:10.735Z,52.51
2016-05-16T01:03:10.457Z,53.17
2016-05-16T01:04:10.428Z,52.98
2016-05-16T01:05:13.415Z,53.08
2016-05-16T01:06:10.339Z,52.98
2016-05-16T01:07:10.109Z,53.08
2016-05-16T01:08:07.611Z,53.84
2016-05-16T01:09:07.379Z,53.46
2016-05-16T01:10:10.179Z,53.75
2016-05-16T01:11:10.822Z,54.03
2016-05-16T01:12:06.997Z,53.84
2016-05-16T01:13:06.953Z,53.94
2016-05-16T01:14:10.315Z,54.41
2016-05-16T01:15:12.864Z,54.6
2016-05-16T01:16:09.804Z,54.79
2016-05-16T01:17:06.838Z,54.6
2016-05-16T01:18:06.716Z,55.08
2016-05-16T01:19:15.703Z,55.36
2016-05-16T01:20:06.862Z,55.36
2016-05-16T01:21:09.724Z,55.65
2016-05-16T01:22:09.491Z,55.74
2016-05-16T01:23:12.464Z,55.55
2016-05-16T01:24:06.373Z,55.55
2016-05-16T01:25:09.329Z,56.12
2016-05-16T01:26:06.266Z,56.19
2016-05-16T01:27:09.225Z,56.48
2016-05-16T01:28:06.163Z,56.85
2016-05-16T01:29:09.121Z,56.48
2016-05-16T01:30:06.058Z,56.38
2016-05-16T01:31:05.998Z,56.57
2016-05-16T01:32:08.879Z,56.67
2016-05-16T01:33:05.754Z,56.57
2016-05-16T01:34:05.851Z,56.67
2016-05-16T01:35:05.806Z,56.57
2016-05-16T01:36:05.761Z,56.57
2016-05-16T01:37:05.545Z,56.7
2016-05-16T01:38:05.471Z,56.12
2016-05-16T01:39:08.584Z,56.31
2016-05-16T01:40:08.620Z,56.6
2016-05-16T01:41:05.479Z,56.7
2016-05-16T01:42:05.622Z,56.7
2016-05-16T01:43:05.358Z,56.51
2016-05-16T01:44:11.364Z,56.41
2016-05-16T01:45:05.301Z,56.51
2016-05-16T01:46:05.428Z,56.7
2016-05-16T01:47:11.184Z,56.7
2016-05-16T01:48:11.108Z,56.79
2016-05-16T01:49:05.061Z,56.79
2016-05-16T01:50:08.364Z,56.7
2016-05-16T01:51:04.958Z,56.79
2016-05-16T01:52:12.426Z,57.17
2016-05-16T01:53:04.941Z,57.07
2016-05-16T01:54:04.937Z,56.6
2016-05-16T01:55:07.992Z,56.7
2016-05-16T01:56:04.883Z,56.7
2016-05-16T01:57:04.859Z,56.7
2016-05-16T01:58:07.863Z,56.79
2016-05-16T01:59:10.817Z,57.36
2016-05-16T02:00:04.942Z,57.17
2016-05-16T02:01:04.709Z,57.17
2016-05-16T02:02:04.688Z,57.26
2016-05-16T02:03:08.221Z,57.17
2016-05-16T02:04:04.564Z,56.98
2016-05-16T02:05:07.658Z,56.98
2016-05-16T02:06:13.492Z,57.17
2016-05-16T02:07:07.637Z,56.95
2016-05-16T02:08:07.372Z,57.07
2016-05-16T02:09:04.313Z,57.17
2016-05-16T02:10:07.287Z,57.26
2016-05-16T02:11:04.214Z,57.55
2016-05-16T02:12:07.218Z,57.55
2016-05-16T02:13:04.127Z,57.52
2016-05-16T02:14:07.067Z,57.55
2016-05-16T02:15:04.009Z,57.65
2016-05-16T02:16:03.965Z,57.62
2016-05-16T02:17:04.421Z,57.43
2016-05-16T02:18:06.861Z,57.65
2016-05-16T02:19:06.802Z,57.52
2016-05-16T02:20:03.929Z,57.62
2016-05-16T02:21:03.697Z,57.81
2016-05-16T02:22:03.982Z,57.55
2016-05-16T02:23:03.922Z,57.43
2016-05-16T02:24:03.549Z,57.62
2016-05-16T02:25:03.506Z,57.62
2016-05-16T02:26:03.430Z,57.62
2016-05-16T02:27:03.229Z,57.52
2016-05-16T02:28:03.325Z,57.81
2016-05-16T02:29:06.281Z,57.71
2016-05-16T02:30:06.222Z,57.62
2016-05-16T02:31:06.194Z,57.43
2016-05-16T02:32:03.117Z,57.62
2016-05-16T02:33:03.074Z,57.62
2016-05-16T02:34:03.029Z,57.62
2016-05-16T02:35:02.970Z,57.52
2016-05-16T02:36:02.753Z,57.71
2016-05-16T02:37:05.881Z,57.52
2016-05-16T02:38:06.024Z,57.43
2016-05-16T02:39:05.761Z,57.43
2016-05-16T02:40:02.702Z,57.62
2016-05-16T02:41:05.642Z,57.43
2016-05-16T02:42:08.678Z,57.62
2016-05-16T02:43:05.756Z,57.62
2016-05-16T02:44:05.493Z,57.52
2016-05-16T02:45:05.496Z,57.52
2016-05-16T02:46:08.407Z,57.62
2016-05-16T02:47:05.407Z,57.52
2016-05-16T02:48:02.286Z,57.52
2016-05-16T02:49:05.242Z,57.65
2016-05-16T02:50:02.026Z,57.26
2016-05-16T02:51:05.168Z,57.33
2016-05-16T02:52:02.078Z,58
2016-05-16T02:53:02.017Z,57.81
2016-05-16T02:54:01.959Z,57.84
2016-05-16T02:55:04.976Z,58
2016-05-16T02:56:04.870Z,58.18
2016-05-16T02:57:07.825Z,57.9
2016-05-16T02:58:07.781Z,57.81
2016-05-16T02:59:01.753Z,57.81
2016-05-16T03:00:01.647Z,57.81
2016-05-16T03:01:01.445Z,58
2016-05-16T03:02:07.558Z,58.18
2016-05-16T03:03:04.514Z,58.28
2016-05-16T03:04:01.453Z,57.65
2016-05-16T03:05:04.425Z,57.9
2016-05-16T03:06:07.380Z,57.81
2016-05-16T03:07:01.274Z,57.81
2016-05-16T03:08:01.730Z,57.93
2016-05-16T03:09:10.188Z,58
2016-05-16T03:10:04.141Z,58.09
2016-05-16T03:11:04.066Z,58
2016-05-16T03:12:10.025Z,58
2016-05-16T03:13:03.963Z,58
2016-05-16T03:14:03.934Z,57.71
2016-05-16T03:15:00.702Z,57.81
2016-05-16T03:16:03.814Z,57.9
2016-05-16T03:17:00.754Z,58.47
2016-05-16T03:18:00.710Z,58.18
2016-05-16T03:19:00.666Z,58.28
2016-05-16T03:20:00.637Z,58.28
2016-05-16T03:21:00.546Z,57.9
2016-05-16T03:22:03.487Z,58
2016-05-16T03:23:00.442Z,58
2016-05-16T03:24:00.398Z,58.18
2016-05-16T03:25:00.339Z,58.09
2016-05-16T03:26:00.279Z,58.18
2016-05-16T03:27:00.078Z,58.37
2016-05-16T03:28:03.518Z,58.47
2016-05-16T03:29:00.130Z,57.62
2016-05-16T03:29:59.914Z,58.12
2016-05-16T03:31:03.042Z,58.47
2016-05-16T03:31:59.967Z,58.28
2016-05-16T03:33:02.922Z,58.18
2016-05-16T03:33:59.863Z,58.09
2016-05-16T03:35:02.819Z,58.28
2016-05-16T03:36:02.805Z,58.28
2016-05-16T03:37:04.152Z,58.18
2016-05-16T03:38:05.670Z,58.37
2016-05-16T03:38:59.594Z,58.28
2016-05-16T03:40:02.550Z,58.28
2016-05-16T03:41:05.538Z,58.28
2016-05-16T03:41:59.446Z,58.76
2016-05-16T03:43:02.402Z,58.76
2016-05-16T03:44:02.343Z,58.66
2016-05-16T03:44:59.283Z,58.76
2016-05-16T03:46:02.238Z,58.57
2016-05-16T03:47:02.194Z,58.85
2016-05-16T03:48:02.151Z,58.37
2016-05-16T03:49:01.918Z,58.66
2016-05-16T03:49:59.077Z,58.76
2016-05-16T03:51:02.174Z,58.37
2016-05-16T03:51:58.926Z,58.28
2016-05-16T03:52:58.710Z,58.28
2016-05-16T03:54:02.010Z,58.5
2016-05-16T03:54:58.606Z,58.03
2016-05-16T03:56:01.703Z,58.18
2016-05-16T03:56:58.487Z,58.28
2016-05-16T03:57:58.599Z,58.09
2016-05-16T03:58:58.539Z,58.18
2016-05-16T04:00:01.339Z,58.18
2016-05-16T04:00:58.450Z,57.9
2016-05-16T04:01:58.391Z,58
2016-05-16T04:02:58.331Z,57.9
2016-05-16T04:04:01.303Z,58
2016-05-16T04:04:58.242Z,58.09
2016-05-16T04:06:01.199Z,58.47
2016-05-16T04:07:01.139Z,57.81
2016-05-16T04:08:01.095Z,57.81
2016-05-16T04:08:58.035Z,58
2016-05-16T04:09:57.975Z,58
2016-05-16T04:10:58.133Z,58
2016-05-16T04:11:57.855Z,58
2016-05-16T04:13:00.827Z,57.62
2016-05-16T04:13:57.766Z,57.9
2016-05-16T04:15:00.598Z,57.81
2016-05-16T04:15:57.663Z,58
2016-05-16T04:16:57.619Z,58.18
2016-05-16T04:17:57.559Z,58
2016-05-16T04:19:09.530Z,58
2016-05-16T04:20:00.907Z,57.71
2016-05-16T04:20:57.489Z,58
2016-05-16T04:21:57.538Z,57.81
2016-05-16T04:23:00.291Z,57.52
2016-05-16T04:24:00.293Z,58
2016-05-16T04:24:57.187Z,57.81
2016-05-16T04:26:00.143Z,57.71
2016-05-16T04:27:03.114Z,57.52
2016-05-16T04:28:00.242Z,57.43
2016-05-16T04:28:59.979Z,57.52
2016-05-16T04:29:59.935Z,57.52
2016-05-16T04:30:56.703Z,57.52
2016-05-16T04:31:56.815Z,57.33
2016-05-16T04:32:59.771Z,57.71
2016-05-16T04:33:59.570Z,58
2016-05-16T04:34:59.667Z,57.81
2016-05-16T04:35:56.608Z,57.81
2016-05-16T04:36:59.578Z,57.81
2016-05-16T04:37:56.503Z,58
2016-05-16T04:38:56.663Z,57.71
2016-05-16T04:39:59.400Z,57.62
2016-05-16T04:40:56.230Z,58.09
2016-05-16T04:41:59.499Z,57.81
2016-05-16T04:43:02.267Z,57.52
2016-05-16T04:43:56.176Z,58
2016-05-16T04:44:56.132Z,58.09
2016-05-16T04:45:56.134Z,57.81
2016-05-16T04:46:59.027Z,58.18
2016-05-16T04:47:59.499Z,57.81
2016-05-16T04:48:58.924Z,57.81
2016-05-16T04:49:56.020Z,57.9
2016-05-16T04:50:59.179Z,57.81
2016-05-16T04:52:01.790Z,58.47
2016-05-16T04:52:58.591Z,58.28
2016-05-16T04:53:58.968Z,57.81
2016-05-16T04:54:58.456Z,57.71
2016-05-16T04:55:55.583Z,57.81
2016-05-16T04:56:55.507Z,57.81
2016-05-16T04:57:55.448Z,57.9
2016-05-16T04:58:58.403Z,58.09
2016-05-16T04:59:55.344Z,57.62
2016-05-16T05:00:55.300Z,57.9
2016-05-16T05:01:55.303Z,58.09
2016-05-16T05:02:55.180Z,57.9
2016-05-16T05:03:58.151Z,58
2016-05-16T05:04:55.278Z,57.43
2016-05-16T05:05:57.875Z,57.43
2016-05-16T05:06:54.988Z,57.65
2016-05-16T05:07:54.928Z,57.62
2016-05-16T05:08:54.852Z,57.17
2016-05-16T05:09:54.824Z,56.79
2016-05-16T05:10:54.780Z,56.79
2016-05-16T05:11:57.719Z,56.98
2016-05-16T05:13:00.691Z,57.07
2016-05-16T05:13:58.038Z,57.17
2016-05-16T05:14:54.556Z,57.26
2016-05-16T05:15:54.497Z,57.17
2016-05-16T05:16:54.296Z,57.26
2016-05-16T05:17:57.438Z,57.36
2016-05-16T05:18:57.551Z,57.36
2016-05-16T05:19:54.288Z,57.26
2016-05-16T05:20:57.260Z,56.98
2016-05-16T05:22:00.043Z,56.6
2016-05-16T05:22:54.343Z,56.79
2016-05-16T05:23:57.079Z,56.51
2016-05-16T05:24:54.037Z,56.6
2016-05-16T05:25:58.632Z,56.6
2016-05-16T05:26:54.620Z,56.31
2016-05-16T05:27:53.825Z,56.79
2016-05-16T05:28:57.015Z,56.7
2016-05-16T05:29:56.768Z,56.51
2016-05-16T05:30:53.927Z,56.7
2016-05-16T05:31:56.742Z,56.41
2016-05-16T05:32:56.620Z,56.22
2016-05-16T05:33:56.561Z,56.12
2016-05-16T05:34:53.501Z,56.22
2016-05-16T05:35:56.472Z,56.22
2016-05-16T05:36:53.396Z,56.03
2016-05-16T05:37:56.353Z,56.22
2016-05-16T05:38:53.292Z,56.31
2016-05-16T05:39:53.264Z,56.31
2016-05-16T05:40:56.204Z,56.12
2016-05-16T05:41:56.160Z,55.65
2016-05-16T05:42:55.943Z,55.65
2016-05-16T05:43:56.056Z,55.55
2016-05-16T05:44:52.996Z,55.65
2016-05-16T05:45:52.952Z,55.55
2016-05-16T05:46:53.126Z,55.55
2016-05-16T05:47:55.849Z,55.93
2016-05-16T05:48:55.693Z,55.65
2016-05-16T05:49:55.885Z,55.74
2016-05-16T05:50:56.309Z,55.74
2016-05-16T05:51:52.452Z,55.55
2016-05-16T05:52:52.564Z,55.55
2016-05-16T05:53:52.521Z,55.55
2016-05-16T05:54:52.460Z,55.65
2016-05-16T05:55:55.510Z,55.55
2016-05-16T05:56:52.373Z,55.83
2016-05-16T05:57:52.312Z,55.65
2016-05-16T05:58:52.268Z,55.36
2016-05-16T05:59:52.192Z,55.83
2016-05-16T06:00:52.164Z,55.83
2016-05-16T06:01:52.089Z,55.83
2016-05-16T06:02:52.045Z,55.83
2016-05-16T06:04:01.000Z,55.93
2016-05-16T06:04:57.940Z,55.55
2016-05-16T06:05:55.225Z,55.27
2016-05-16T06:06:54.836Z,55.17
2016-05-16T06:07:54.792Z,54.98
2016-05-16T06:08:51.936Z,55.36
2016-05-16T06:09:51.688Z,55.17
2016-05-16T06:10:54.644Z,54.89
2016-05-16T06:11:51.787Z,54.32
2016-05-16T06:12:54.572Z,54.44
2016-05-16T06:13:51.480Z,54.63
2016-05-16T06:14:54.624Z,54.82
2016-05-16T06:15:51.376Z,54.32
2016-05-16T06:16:54.332Z,53.96
2016-05-16T06:17:54.271Z,54.15
2016-05-16T06:19:00.227Z,53.96
2016-05-16T06:19:51.310Z,54.06
2016-05-16T06:20:54.530Z,53.94
2016-05-16T06:21:57.127Z,54.32
2016-05-16T06:22:54.020Z,54.41
2016-05-16T06:23:53.991Z,54.22
2016-05-16T06:24:50.901Z,54.13
2016-05-16T06:25:53.856Z,54.22
2016-05-16T06:26:50.640Z,54.32
2016-05-16T06:27:50.752Z,53.94
2016-05-16T06:28:50.692Z,53.84
2016-05-16T06:29:53.507Z,53.65
2016-05-16T06:30:50.589Z,53.3
2016-05-16T06:31:53.559Z,53.3
2016-05-16T06:32:50.485Z,53.39
2016-05-16T06:33:53.455Z,53.3
2016-05-16T06:34:53.396Z,53.2
2016-05-16T06:35:50.321Z,52.92
2016-05-16T06:36:50.292Z,52.92
2016-05-16T06:37:53.233Z,53.39
2016-05-16T06:38:53.172Z,53.2
2016-05-16T06:39:50.128Z,53.01
2016-05-16T06:40:50.069Z,53.39
2016-05-16T06:41:53.040Z,53.3
2016-05-16T06:42:53.058Z,52.92
2016-05-16T06:43:49.920Z,52.82
2016-05-16T06:44:49.907Z,53.2
2016-05-16T06:45:49.800Z,52.63
2016-05-16T06:46:52.819Z,52.63
2016-05-16T06:47:49.556Z,52.63
2016-05-16T06:48:52.653Z,52.44
2016-05-16T06:49:52.593Z,52.53
2016-05-16T06:50:49.627Z,53.3
2016-05-16T06:51:49.911Z,53.2
2016-05-16T06:52:49.460Z,52.82
2016-05-16T06:53:49.401Z,52.92
2016-05-16T06:54:49.340Z,52.92
2016-05-16T06:55:49.515Z,53.11
2016-05-16T06:56:49.237Z,52.72
2016-05-16T06:57:49.193Z,53.01
2016-05-16T06:58:49.132Z,53.11
2016-05-16T06:59:52.323Z,53.11
2016-05-16T07:00:49.044Z,53.01
2016-05-16T07:01:49.047Z,52.53
2016-05-16T07:02:52.143Z,52.63
2016-05-16T07:03:51.880Z,53.11
2016-05-16T07:04:48.837Z,52.72
2016-05-16T07:05:48.808Z,52.53
2016-05-16T07:06:51.731Z,53.01
2016-05-16T07:07:48.657Z,52.82
2016-05-16T07:08:51.628Z,52.92
2016-05-16T07:09:48.569Z,52.72
2016-05-16T07:10:51.727Z,52.82
2016-05-16T07:11:55.902Z,52.72
2016-05-16T07:12:48.420Z,52.18
2016-05-16T07:13:48.392Z,51.89
2016-05-16T07:14:51.332Z,51.8
2016-05-16T07:15:48.272Z,51.32
2016-05-16T07:16:51.213Z,51.89
2016-05-16T07:17:48.183Z,51.7
2016-05-16T07:18:51.124Z,51.78
2016-05-16T07:19:48.063Z,51.58
2016-05-16T07:20:50.848Z,51.58
2016-05-16T07:21:50.960Z,51.7
2016-05-16T07:22:50.916Z,51.14
2016-05-16T07:23:50.700Z,51.51
2016-05-16T07:24:47.796Z,51.32
2016-05-16T07:25:47.752Z,50.94
2016-05-16T07:26:50.723Z,50.94
2016-05-16T07:27:47.851Z,50.94
2016-05-16T07:28:47.620Z,51.04
2016-05-16T07:29:47.543Z,51.04
2016-05-16T07:30:47.485Z,51.04
2016-05-16T07:31:50.534Z,50.85
2016-05-16T07:32:47.239Z,51.04
2016-05-16T07:33:47.179Z,50.46
2016-05-16T07:34:47.307Z,50.37
2016-05-16T07:35:47.092Z,50.18
2016-05-16T07:36:47.187Z,50.18
2016-05-16T07:37:50.159Z,49.99
2016-05-16T07:38:47.115Z,49.8
2016-05-16T07:39:50.056Z,49.42
2016-05-16T07:40:46.996Z,49.61
2016-05-16T07:41:50.138Z,49.9
2016-05-16T07:42:46.892Z,50.27
2016-05-16T07:43:46.816Z,49.71
2016-05-16T07:44:46.631Z,49.9
2016-05-16T07:45:46.727Z,49.32
2016-05-16T07:46:49.918Z,49.61
2016-05-16T07:47:46.623Z,49.23
2016-05-16T07:48:46.579Z,48.85
2016-05-16T07:49:46.536Z,48.87
2016-05-16T07:50:46.679Z,48.68
2016-05-16T07:51:49.432Z,48.58
2016-05-16T07:52:46.371Z,48.58
2016-05-16T07:53:46.499Z,47.92
2016-05-16T07:54:46.268Z,47.92
2016-05-16T07:55:46.223Z,47.54
2016-05-16T07:56:46.163Z,47.63
2016-05-16T07:57:46.306Z,47.44
2016-05-16T07:58:49.076Z,47.54
2016-05-16T07:59:46.219Z,47.54
2016-05-16T08:00:45.799Z,47.06
2016-05-16T08:01:46.318Z,47.16
2016-05-16T08:02:45.851Z,46.58
2016-05-16T08:03:45.807Z,46.39
2016-05-16T08:04:45.747Z,46.13
2016-05-16T08:05:48.734Z,46.42
2016-05-16T08:06:51.659Z,45.94
2016-05-16T08:07:45.615Z,46.04
2016-05-16T08:08:45.555Z,46.04
2016-05-16T08:09:45.511Z,46.04
2016-05-16T08:10:51.889Z,45.73
2016-05-16T08:11:45.406Z,46.04
2016-05-16T08:12:45.566Z,46.04
2016-05-16T08:13:45.302Z,45.75
2016-05-16T08:14:45.275Z,46.04
2016-05-16T08:15:45.200Z,45.94
2016-05-16T08:16:44.999Z,46.2
2016-05-16T08:17:45.127Z,46.3
2016-05-16T08:18:45.254Z,46.2
2016-05-16T08:19:44.991Z,46.01
2016-05-16T08:20:44.947Z,45.94
2016-05-16T08:21:47.730Z,45.84
2016-05-16T08:22:53.983Z,45.83
2016-05-16T08:23:47.658Z,45.92
2016-05-16T08:24:47.614Z,45.92
2016-05-16T08:25:44.710Z,45.92
2016-05-16T08:26:44.651Z,45.83
2016-05-16T08:27:44.606Z,46.11
2016-05-16T08:28:47.562Z,45.84
2016-05-16T08:29:44.345Z,45.65
2016-05-16T08:30:47.645Z,45.84
2016-05-16T08:31:47.243Z,45.94
2016-05-16T08:32:44.354Z,45.65
2016-05-16T08:33:44.279Z,45.37
2016-05-16T08:34:44.078Z,45.08
2016-05-16T08:35:44.331Z,44.8
2016-05-16T08:36:47.146Z,44.6
2016-05-16T08:37:44.070Z,44.7
2016-05-16T08:38:47.261Z,44.99
2016-05-16T08:39:43.967Z,44.89
2016-05-16T08:40:43.938Z,44.89
2016-05-16T08:41:43.878Z,44.99
2016-05-16T08:42:43.834Z,45.28
2016-05-16T08:43:43.774Z,44.99
2016-05-16T08:44:43.731Z,44.89
2016-05-16T08:45:43.685Z,44.8
2016-05-16T08:46:43.532Z,44.99
2016-05-16T08:47:46.629Z,44.89
2016-05-16T08:48:46.553Z,44.7
2016-05-16T08:49:43.494Z,44.89
2016-05-16T08:50:46.277Z,44.6
2016-05-16T08:51:46.233Z,44.42
2016-05-16T08:52:43.611Z,44.13
2016-05-16T08:53:43.301Z,44.44
2016-05-16T08:54:46.226Z,43.58
2016-05-16T08:55:43.182Z,42.63
2016-05-16T08:56:46.138Z,42.63
2016-05-16T08:57:45.921Z,42.44
2016-05-16T08:58:43.033Z,42.15
2016-05-16T08:59:42.989Z,41.29
2016-05-16T09:00:42.960Z,41.03
2016-05-16T09:01:42.915Z,41.03
2016-05-16T09:02:42.809Z,40.83
2016-05-16T09:03:43.282Z,40.55
2016-05-16T09:04:45.721Z,40.17
2016-05-16T09:05:43.256Z,39.69
2016-05-16T09:06:42.633Z,38.95
2016-05-16T09:07:45.573Z,38.95
2016-05-16T09:08:42.529Z,38.85
2016-05-16T09:09:42.469Z,38.28
2016-05-16T09:10:42.284Z,38.37
2016-05-16T09:11:42.381Z,38.09
2016-05-16T09:12:42.228Z,38.18
2016-05-16T09:13:42.277Z,37.99
2016-05-16T09:14:45.076Z,38.18
2016-05-16T09:15:42.375Z,38.37
2016-05-16T09:16:42.128Z,38.37
2016-05-16T09:17:42.083Z,38.09
2016-05-16T09:18:45.024Z,38.37
2016-05-16T09:19:41.981Z,38.37
2016-05-16T09:20:41.936Z,38.18
2016-05-16T09:21:41.877Z,37.68
2016-05-16T09:22:41.832Z,37.9
2016-05-16T09:23:41.772Z,37.23
2016-05-16T09:24:41.744Z,37.32
2016-05-16T09:25:41.700Z,37.51
2016-05-16T09:26:41.624Z,37.42
2016-05-16T09:27:41.440Z,37.32
2016-05-16T09:28:44.536Z,37.61
2016-05-16T09:29:41.679Z,37.99
2016-05-16T09:30:44.291Z,37.78
2016-05-16T09:31:41.793Z,37.88
2016-05-16T09:32:41.343Z,37.61
2016-05-16T09:33:41.299Z,37.32
2016-05-16T09:34:44.443Z,37.12
2016-05-16T09:35:44.258Z,37.21
2016-05-16T09:36:41.151Z,37.02
2016-05-16T09:37:41.092Z,37.12
2016-05-16T09:38:41.031Z,36.73
2016-05-16T09:39:40.987Z,36.44
2016-05-16T09:40:44.146Z,36.16
2016-05-16T09:41:43.742Z,36.07
2016-05-16T09:42:40.839Z,36.73
2016-05-16T09:43:40.795Z,36.64
2016-05-16T09:44:40.782Z,37.12
2016-05-16T09:45:43.925Z,36.92
2016-05-16T09:46:40.475Z,37.21
2016-05-16T09:47:40.586Z,37.4
2016-05-16T09:48:40.589Z,37.3
2016-05-16T09:49:43.499Z,37.68
2016-05-16T09:50:40.454Z,37.3
2016-05-16T09:51:40.645Z,37.42
2016-05-16T09:52:43.366Z,37.04
2016-05-16T09:53:40.306Z,36.75
2016-05-16T09:54:40.090Z,36.77
2016-05-16T09:55:40.186Z,36.68
2016-05-16T09:56:43.158Z,36.56
2016-05-16T09:57:40.099Z,37.04
2016-05-16T09:58:40.039Z,37.32
2016-05-16T09:59:39.838Z,37.13
2016-05-16T10:00:40.154Z,37.23
2016-05-16T10:01:39.906Z,37.32
2016-05-16T10:02:45.721Z,37.71
2016-05-16T10:03:39.864Z,38.09
2016-05-16T10:04:39.742Z,38.83
2016-05-16T10:05:39.588Z,39.31
2016-05-16T10:06:39.654Z,39.59
2016-05-16T10:07:42.610Z,39.98
2016-05-16T10:08:39.550Z,39.88
2016-05-16T10:09:39.709Z,40.07
2016-05-16T10:10:39.445Z,39.86
2016-05-16T10:11:39.401Z,39.95
2016-05-16T10:12:39.342Z,39.95
2016-05-16T10:13:39.157Z,39.86
2016-05-16T10:14:41.317Z,39.95
2016-05-16T10:15:39.100Z,39.58
2016-05-16T10:16:42.025Z,39.1
2016-05-16T10:17:39.105Z,38.34
2016-05-16T10:18:42.248Z,37.86
2016-05-16T10:19:42.016Z,37.78
2016-05-16T10:20:39.286Z,37.3
2016-05-16T10:21:41.913Z,36.83
2016-05-16T10:22:41.853Z,35.97
2016-05-16T10:23:38.809Z,35.32
2016-05-16T10:24:41.749Z,35.13
2016-05-16T10:25:41.580Z,34.65
2016-05-16T10:26:38.504Z,34.27
2016-05-16T10:27:38.601Z,33.42
2016-05-16T10:28:41.557Z,33.42
2016-05-16T10:29:38.732Z,33.14
2016-05-16T10:30:41.656Z,33.41
2016-05-16T10:31:41.252Z,33.12
2016-05-16T10:32:38.193Z,33.22
2016-05-16T10:33:41.163Z,33.12
2016-05-16T10:34:44.260Z,33.03
2016-05-16T10:35:38.043Z,33.22
2016-05-16T10:36:40.985Z,33.04
2016-05-16T10:37:41.112Z,32.57
2016-05-16T10:38:44.083Z,32.09
2016-05-16T10:39:44.009Z,31.8
2016-05-16T10:40:40.965Z,31.34
2016-05-16T10:41:49.904Z,31.53
2016-05-16T10:42:40.860Z,31.43
2016-05-16T10:43:37.800Z,31.34
2016-05-16T10:44:43.772Z,31.71
2016-05-16T10:45:37.555Z,31.9
2016-05-16T10:46:43.839Z,32.28
2016-05-16T10:47:37.608Z,32.47
2016-05-16T10:48:37.564Z,32.84
2016-05-16T10:49:40.488Z,33.12
2016-05-16T10:50:38.100Z,33.31
2016-05-16T10:51:40.399Z,33.98
2016-05-16T10:52:40.372Z,34.27
2016-05-16T10:53:37.296Z,34.55
2016-05-16T10:54:37.252Z,34.94
2016-05-16T10:55:37.223Z,35.32
2016-05-16T10:56:40.257Z,35.32
2016-05-16T10:57:37.143Z,35.6
2016-05-16T10:58:37.162Z,35.51
2016-05-16T10:59:37.149Z,35.51
2016-05-16T11:00:37.152Z,35.51
2016-05-16T11:01:40.170Z,35.32
2016-05-16T11:02:37.115Z,35.41
2016-05-16T11:03:37.089Z,35.41
2016-05-16T11:04:36.889Z,35.51
2016-05-16T11:05:37.846Z,35.32
2016-05-16T11:06:39.976Z,35.22
2016-05-16T11:07:39.969Z,35.32
2016-05-16T11:08:40.103Z,34.55
2016-05-16T11:09:36.861Z,34
2016-05-16T11:10:36.808Z,33.52
2016-05-16T11:11:36.613Z,33.14
2016-05-16T11:12:36.712Z,32.66
2016-05-16T11:13:39.513Z,32.29
2016-05-16T11:14:36.628Z,32.1
2016-05-16T11:15:36.570Z,32.1
2016-05-16T11:16:39.545Z,32.1
2016-05-16T11:17:39.470Z,32.2
2016-05-16T11:18:36.441Z,32.09
2016-05-16T11:19:36.228Z,31.99
2016-05-16T11:20:36.355Z,31.8
2016-05-16T11:21:36.280Z,31.63
2016-05-16T11:22:39.238Z,31.51
2016-05-16T11:23:36.224Z,31.23
2016-05-16T11:24:42.197Z,31.32
2016-05-16T11:25:39.105Z,30.75
2016-05-16T11:26:36.108Z,30.46
2016-05-16T11:27:36.002Z,30.38
2016-05-16T11:28:35.973Z,30
2016-05-16T11:29:35.897Z,29.81
2016-05-16T11:30:35.854Z,29.81
2016-05-16T11:31:35.809Z,30
2016-05-16T11:32:35.750Z,29.81
2016-05-16T11:33:35.690Z,30.19
2016-05-16T11:34:35.646Z,29.91
2016-05-16T11:35:38.727Z,30.1
2016-05-16T11:36:38.572Z,29.72
2016-05-16T11:37:38.732Z,29.33
2016-05-16T11:38:35.469Z,29.14
2016-05-16T11:39:35.410Z,29.33
2016-05-16T11:40:35.208Z,29.06
2016-05-16T11:41:35.305Z,29.06
2016-05-16T11:42:35.260Z,29.06
2016-05-16T11:43:35.216Z,28.76
2016-05-16T11:44:35.016Z,28.01
2016-05-16T11:45:35.128Z,28.01
2016-05-16T11:46:35.069Z,28.01
2016-05-16T11:47:35.024Z,28.01
2016-05-16T11:48:34.980Z,28.01
2016-05-16T11:49:34.921Z,27.62
2016-05-16T11:50:37.751Z,27.62
2016-05-16T11:51:34.848Z,27.53
2016-05-16T11:52:34.819Z,27.62
2016-05-16T11:53:37.743Z,27.05
2016-05-16T11:54:37.700Z,26.96
2016-05-16T11:55:34.468Z,27.25
2016-05-16T11:56:34.580Z,27.34
2016-05-16T11:57:34.536Z,27.15
2016-05-16T11:58:34.335Z,27.05
2016-05-16T11:59:34.276Z,27.15
2016-05-16T12:00:37.403Z,26.96
2016-05-16T12:01:37.344Z,26.96
2016-05-16T12:02:34.284Z,27.05
2016-05-16T12:03:34.239Z,27.05
2016-05-16T12:04:34.398Z,27.25
2016-05-16T12:05:34.025Z,27.15
2016-05-16T12:06:34.294Z,27.14
2016-05-16T12:07:34.047Z,27.33
2016-05-16T12:08:33.988Z,27.14
2016-05-16T12:09:33.943Z,27.14
2016-05-16T12:10:33.914Z,27.14
2016-05-16T12:11:36.855Z,27.33
2016-05-16T12:12:33.794Z,27.42
2016-05-16T12:13:39.797Z,27.04
2016-05-16T12:14:33.910Z,27.14
2016-05-16T12:15:33.725Z,27.04
2016-05-16T12:16:36.618Z,27.04
2016-05-16T12:17:33.558Z,27.14
2016-05-16T12:18:33.498Z,27.61
2016-05-16T12:19:33.454Z,27.14
2016-05-16T12:20:33.503Z,27.42
2016-05-16T12:21:36.365Z,27.14
2016-05-16T12:22:36.166Z,27.14
2016-05-16T12:23:33.262Z,27.52
2016-05-16T12:24:33.234Z,28.09
2016-05-16T12:25:33.173Z,27.9
2016-05-16T12:26:33.114Z,28.76
2016-05-16T12:27:36.117Z,28.94
2016-05-16T12:28:33.041Z,28.95
2016-05-16T12:29:32.981Z,28.76
2016-05-16T12:30:32.922Z,28.76
2016-05-16T12:31:32.878Z,28.76
2016-05-16T12:32:32.880Z,28.76
2016-05-16T12:33:32.851Z,28.95
2016-05-16T12:34:32.963Z,28.97
2016-05-16T12:35:32.731Z,28.95
2016-05-16T12:36:33.171Z,29.43
2016-05-16T12:37:32.581Z,29.14
2016-05-16T12:38:35.600Z,29.24
2016-05-16T12:39:35.492Z,29.43
2016-05-16T12:40:35.464Z,29.62
2016-05-16T12:41:35.404Z,29.72
2016-05-16T12:42:32.344Z,29.81
2016-05-16T12:43:32.815Z,30
2016-05-16T12:44:35.240Z,29.91
2016-05-16T12:45:32.196Z,30.1
2016-05-16T12:46:32.199Z,30.37
2016-05-16T12:47:35.107Z,30.58
2016-05-16T12:48:35.063Z,30.67
2016-05-16T12:49:32.066Z,30.75
2016-05-16T12:50:38.178Z,30.67
2016-05-16T12:51:34.760Z,30.48
2016-05-16T12:52:31.855Z,30.29
2016-05-16T12:53:31.812Z,30
2016-05-16T12:54:31.752Z,30.19
2016-05-16T12:55:34.707Z,30.1
2016-05-16T12:56:31.662Z,29.83
2016-05-16T12:57:31.822Z,29.81